Hauptseite
METAR-TAF:

METAR-TAF

Flughäfen :

Militärflugplatz Solenzara

Solenzara, Frankreich

Breite: 41-55N, Länge: 009-24E, Höhe: 8 m

Beobachtung

Neuester Wetterbericht von vor 41 Minuten, um 19:00 UTC
Wind 5 kt aus West
Temperatur 18°C
Luftfeuchtigkeit 77%
Luftdruck 1015 hPa
Sichtweite 10 km oder mehr
Leicht bewölkt in der Höhe von 3300 ft
Durchbrochene Bewölkung in der Höhe von 6200 ft
Durchbrochene Bewölkung in der Höhe von 7600 ft

METAR: LFKS 211900Z AUTO 28005KT 9999 FEW033 BKN062 BKN076 18/14 Q1015

Zeit: 21:41 (19:41 UTC)


TAF: fehlend

Wetterbeobachtungen und Prognosen von mehr als 4000 Flughäfen (METAR und TAF Bericht).

Die verfügbaren Stationen werden durch gelbe und rote Markierungen auf der Karte dargestellt.

Führen Sie die Maus auf sie, um den Namen der Station zu sehen.

Darauf klicken, um die Beobachtung von Wetterbeobachtungen und Prognosen zu sehen.

Um die Karte zu ändern : klicken Sie auf den grünen Tasten mit einem schwarzen Kreuz Zum Vergrößern, auf den grünen Button mit einem Gedankenstrich zu verkleinern, oder auf die grünen Pfeile für benachbarte Karten.


METAR-TAF: